Time;durP1;ratioP1;P1;durP2;ratioP2;P2;SDS_P1;SDS_P2;PMS_P1;PMS_P2;Temp;Humidity;BMP_temperature;BMP_pressure;BME280_temperature;BME280_humidity;BME280_pressure;Samples;Min_cycle;Max_cycle;Signal;HPM_P1;HPM_P2
2023/09/14 00:00:47;;;;;;;6.03;5.40;;;21.30;41.60;;;;;;5025770;28;20412;-73
2023/09/14 00:03:13;;;;;;;5.75;5.30;;;21.30;45.50;;;;;;5021242;28;20100;-72
2023/09/14 00:05:43;;;;;;;5.75;5.35;;;21.30;43.50;;;;;;5020384;28;20010;-73
2023/09/14 00:08:09;;;;;;;6.35;5.82;;;21.20;45.20;;;;;;5019756;28;20049;-73
2023/09/14 00:10:36;;;;;;;5.85;5.38;;;21.20;45.00;;;;;;5004551;28;20116;-73
2023/09/14 00:13:01;;;;;;;6.10;5.72;;;21.10;49.50;;;;;;5021864;28;20382;-73
2023/09/14 00:15:27;;;;;;;6.38;5.80;;;21.10;50.50;;;;;;5020652;28;20060;-73
2023/09/14 00:17:53;;;;;;;6.43;5.75;;;21.10;54.70;;;;;;5023089;28;20043;-73
2023/09/14 00:20:20;;;;;;;7.47;6.93;;;21.10;58.20;;;;;;5020713;28;20053;-73
2023/09/14 00:22:48;;;;;;;7.32;6.78;;;21.30;53.10;;;;;;5021575;28;20036;-73
2023/09/14 00:25:14;;;;;;;7.53;6.93;;;21.30;52.30;;;;;;5022567;28;20025;-73
2023/09/14 00:27:40;;;;;;;7.88;7.15;;;21.30;47.90;;;;;;5024123;28;20032;-73
2023/09/14 00:30:06;;;;;;;7.63;7.00;;;21.20;48.20;;;;;;5022676;28;20023;-73
2023/09/14 00:32:38;;;;;;;7.55;6.95;;;21.20;49.00;;;;;;5020898;28;20406;-73
2023/09/14 00:35:05;;;;;;;7.60;7.00;;;21.20;53.50;;;;;;5019845;28;20087;-73
2023/09/14 00:37:31;;;;;;;7.38;6.78;;;21.20;57.40;;;;;;5019936;28;20097;-73
2023/09/14 00:39:57;;;;;;;7.97;7.38;;;21.20;53.60;;;;;;5022004;28;20112;-73
2023/09/14 00:42:22;;;;;;;8.10;7.47;;;21.20;54.60;;;;;;5012393;28;20474;-73
2023/09/14 00:44:48;;;;;;;8.57;7.80;;;21.10;51.40;;;;;;5020641;28;20022;-73
2023/09/14 00:47:14;;;;;;;8.10;7.32;;;21.20;51.00;;;;;;5023076;28;20477;-73
2023/09/14 00:49:41;;;;;;;8.30;7.70;;;21.20;54.80;;;;;;5022645;28;20508;-73
2023/09/14 00:52:10;;;;;;;8.95;8.07;;;21.30;58.60;;;;;;5020553;28;20077;-73
2023/09/14 00:54:39;;;;;;;8.43;7.90;;;21.20;58.60;;;;;;5025680;28;20021;-73
2023/09/14 00:57:05;;;;;;;9.63;7.57;;;21.20;53.80;;;;;;5033027;28;20022;-73
2023/09/14 00:59:31;;;;;;;7.82;7.22;;;21.10;54.30;;;;;;5026750;28;20048;-73
2023/09/14 01:01:57;;;;;;;7.75;7.15;;;21.10;51.20;;;;;;5027802;28;20100;-73
2023/09/14 01:04:23;;;;;;;7.38;6.85;;;21.20;52.70;;;;;;5028402;28;20132;-73
2023/09/14 01:06:49;;;;;;;7.70;7.10;;;21.20;48.50;;;;;;5016562;28;20033;-73
2023/09/14 01:09:15;;;;;;;8.13;7.40;;;21.20;51.80;;;;;;5026117;28;20485;-73
2023/09/14 01:11:41;;;;;;;8.07;7.38;;;21.20;47.90;;;;;;5028265;28;20036;-72
2023/09/14 01:14:25;;;;;;;9.77;7.68;;;21.10;48.30;;;;;;5027717;28;20509;-73
2023/09/14 01:17:01;;;;;;;8.65;7.95;;;21.10;48.40;;;;;;5027269;28;20022;-73
2023/09/14 01:19:32;;;;;;;8.48;7.85;;;21.10;50.50;;;;;;5029701;28;20057;-73
2023/09/14 01:22:28;;;;;;;8.63;7.85;;;21.10;50.60;;;;;;5018015;28;20034;-73
2023/09/14 01:25:20;;;;;;;8.57;7.72;;;21.00;59.70;;;;;;5029750;28;20120;-73
2023/09/14 01:27:46;;;;;;;9.23;8.43;;;20.90;62.50;;;;;;5031166;28;20022;-73
2023/09/14 01:30:11;;;;;;;11.07;10.15;;;20.90;67.10;;;;;;5025982;28;20029;-73
2023/09/14 01:32:37;;;;;;;10.80;9.73;;;20.90;68.60;;;;;;5010762;28;20373;-73
2023/09/14 01:35:04;;;;;;;10.88;9.98;;;20.90;69.40;;;;;;5027150;28;20461;-73
2023/09/14 01:37:30;;;;;;;10.70;9.70;;;20.90;68.90;;;;;;5009145;28;20026;-73
2023/09/14 01:39:57;;;;;;;12.40;10.70;;;20.90;69.20;;;;;;5025086;28;20022;-73
2023/09/14 01:42:23;;;;;;;10.68;9.63;;;20.90;69.90;;;;;;5029033;28;20025;-73
2023/09/14 01:44:50;;;;;;;11.23;10.20;;;21.00;71.20;;;;;;5026460;28;20401;-73
2023/09/14 01:47:16;;;;;;;17.77;11.32;;;21.00;69.10;;;;;;5027207;28;20445;-72
2023/09/14 01:49:43;;;;;;;11.50;10.50;;;21.00;75.20;;;;;;5028480;28;20052;-73
2023/09/14 01:52:09;;;;;;;11.75;10.25;;;21.00;69.40;;;;;;5025342;28;20041;-73
2023/09/14 01:54:35;;;;;;;25.08;12.10;;;21.00;63.70;;;;;;5028120;28;20083;-73
2023/09/14 01:57:01;;;;;;;11.75;10.60;;;20.90;73.70;;;;;;5028209;28;20014;-73
2023/09/14 01:59:26;;;;;;;11.65;10.52;;;20.90;76.20;;;;;;5010216;28;20057;-73
2023/09/14 02:01:52;;;;;;;11.48;10.57;;;20.80;83.20;;;;;;5008279;28;20180;-73
2023/09/14 02:04:18;;;;;;;11.23;10.18;;;20.80;84.30;;;;;;5015911;28;20029;-73
2023/09/14 02:06:43;;;;;;;11.38;10.32;;;20.80;90.40;;;;;;5024341;28;20022;-73
2023/09/14 02:09:09;;;;;;;11.50;10.50;;;20.80;91.70;;;;;;5015083;28;20040;-73
2023/09/14 02:11:35;;;;;;;11.93;10.93;;;20.80;85.60;;;;;;5023141;28;20382;-73
2023/09/14 02:14:00;;;;;;;11.70;10.70;;;20.80;78.50;;;;;;5025506;28;20029;-73
2023/09/14 02:16:27;;;;;;;11.48;10.48;;;20.80;73.90;;;;;;5022184;28;20042;-72
2023/09/14 02:18:53;;;;;;;13.15;11.90;;;20.80;75.40;;;;;;5024587;28;20092;-73
2023/09/14 02:21:19;;;;;;;13.45;11.98;;;20.80;73.40;;;;;;5015004;28;20054;-73
2023/09/14 02:23:44;;;;;;;12.52;11.40;;;20.80;77.70;;;;;;5022725;28;20053;-73
2023/09/14 02:26:10;;;;;;;14.18;12.15;;;20.70;74.30;;;;;;5025248;28;20033;-72
2023/09/14 02:28:36;;;;;;;12.68;11.57;;;20.70;73.00;;;;;;5024906;28;20037;-72
2023/09/14 02:31:08;;;;;;;12.95;11.85;;;20.70;74.20;;;;;;5014136;28;20028;-73
2023/09/14 02:33:33;;;;;;;;;;;20.60;77.60;;;;;;5012974;28;20017;-73
2023/09/14 02:35:59;;;;;;;13.27;12.07;;;20.50;79.30;;;;;;5022091;28;19914;-72
2023/09/14 02:38:25;;;;;;;12.82;11.82;;;20.40;86.20;;;;;;5024032;28;20071;-73
2023/09/14 02:40:51;;;;;;;12.93;11.73;;;20.50;89.60;;;;;;5021366;28;20029;-73
2023/09/14 02:43:16;;;;;;;12.27;11.18;;;20.50;90.70;;;;;;5023745;28;20021;-73
2023/09/14 02:45:42;;;;;;;12.40;11.30;;;20.50;87.50;;;;;;5022080;28;20100;-73
2023/09/14 02:48:08;;;;;;;15.38;11.63;;;20.50;85.30;;;;;;5024535;28;20394;-73
2023/09/14 02:50:33;;;;;;;12.95;11.82;;;20.60;85.80;;;;;;5022313;28;20145;-73
2023/09/14 02:52:59;;;;;;;13.63;12.45;;;20.50;70.70;;;;;;5005467;28;20402;-73
2023/09/14 02:55:25;;;;;;;13.68;12.25;;;20.50;77.00;;;;;;5023528;28;20080;-73
2023/09/14 02:57:51;;;;;;;12.93;11.70;;;20.50;78.90;;;;;;5025255;28;20028;-73
2023/09/14 03:00:17;;;;;;;12.98;11.60;;;20.50;77.40;;;;;;5021590;28;20024;-73
2023/09/14 03:02:46;;;;;;;12.30;11.13;;;20.40;69.30;;;;;;5006074;28;20049;-73
2023/09/14 03:05:12;;;;;;;12.10;11.10;;;20.50;72.30;;;;;;5023449;28;20022;-73
2023/09/14 03:07:38;;;;;;;12.65;11.23;;;20.50;66.70;;;;;;5004176;28;20088;-73
2023/09/14 03:10:05;;;;;;;12.23;11.23;;;20.40;66.60;;;;;;5014479;28;20097;-73
2023/09/14 03:12:31;;;;;;;13.38;12.07;;;20.50;72.90;;;;;;5021545;28;20030;-73
2023/09/14 03:14:57;;;;;;;13.40;12.07;;;20.50;66.50;;;;;;5022825;28;20087;-73
2023/09/14 03:17:23;;;;;;;12.88;11.77;;;20.50;73.90;;;;;;5022351;28;20521;-73
2023/09/14 03:19:48;;;;;;;13.35;12.07;;;20.40;75.30;;;;;;5003552;28;20026;-73
2023/09/14 03:22:14;;;;;;;13.85;12.43;;;20.40;76.30;;;;;;5003493;28;20033;-73
2023/09/14 03:24:40;;;;;;;13.52;12.32;;;20.30;86.90;;;;;;5024927;28;20025;-73
2023/09/14 03:27:06;;;;;;;14.30;11.65;;;20.30;82.30;;;;;;5024120;28;20018;-73
2023/09/14 03:29:32;;;;;;;14.57;13.20;;;20.40;78.00;;;;;;5023647;28;20026;-73
2023/09/14 03:31:58;;;;;;;14.35;12.95;;;20.30;81.80;;;;;;5020734;28;20034;-73
2023/09/14 03:34:23;;;;;;;12.68;11.52;;;20.30;80.60;;;;;;5023839;28;20029;-73
2023/09/14 03:36:49;;;;;;;12.95;11.85;;;20.30;81.40;;;;;;5021958;28;20026;-73
2023/09/14 03:39:15;;;;;;;11.35;10.25;;;20.30;77.10;;;;;;5022165;28;20282;-73
2023/09/14 03:41:41;;;;;;;12.07;10.85;;;20.40;75.00;;;;;;5023098;28;20044;-73
2023/09/14 03:44:06;;;;;;;11.63;10.65;;;20.30;69.80;;;;;;5020787;28;20119;-73
2023/09/14 03:46:32;;;;;;;12.13;10.73;;;20.30;71.30;;;;;;5023383;28;20022;-73
2023/09/14 03:48:58;;;;;;;11.45;10.55;;;20.20;59.00;;;;;;5021528;28;20036;-73
2023/09/14 03:51:23;;;;;;;9.75;9.05;;;20.20;57.60;;;;;;5021694;28;20032;-73
2023/09/14 03:53:49;;;;;;;10.23;9.40;;;20.30;57.30;;;;;;5023028;28;20045;-73
2023/09/14 03:56:15;;;;;;;9.38;8.63;;;20.20;60.10;;;;;;5022556;28;20085;-73
2023/09/14 03:58:42;;;;;;;10.48;9.63;;;20.20;62.00;;;;;;5023124;28;20029;-73
2023/09/14 04:01:09;;;;;;;10.63;9.65;;;20.20;62.80;;;;;;5021524;28;20325;-72
2023/09/14 04:03:34;;;;;;;9.55;8.73;;;20.20;57.00;;;;;;5020998;28;20500;-72
2023/09/14 04:06:00;;;;;;;10.07;9.15;;;20.20;55.50;;;;;;5023621;28;20025;-73
2023/09/14 04:08:26;;;;;;;9.43;8.63;;;20.30;49.70;;;;;;5020519;28;20520;-72
2023/09/14 04:10:52;;;;;;;10.48;9.18;;;20.30;49.20;;;;;;5022170;28;20025;-73
2023/09/14 04:13:35;;;;;;;9.73;9.00;;;20.30;50.80;;;;;;5024563;28;20473;-73
2023/09/14 04:16:02;;;;;;;10.02;9.23;;;20.20;54.10;;;;;;5021274;28;20022;-73
2023/09/14 04:18:29;;;;;;;9.77;9.00;;;20.20;55.90;;;;;;5021064;28;20619;-73
2023/09/14 04:20:55;;;;;;;10.75;9.85;;;20.20;54.10;;;;;;5022970;28;20022;-73
2023/09/14 04:23:21;;;;;;;10.32;9.38;;;20.20;55.90;;;;;;5020149;28;20022;-73
2023/09/14 04:25:48;;;;;;;10.30;9.50;;;20.20;55.90;;;;;;5022231;28;20026;-73
2023/09/14 04:28:15;;;;;;;10.93;9.70;;;20.20;55.10;;;;;;5023377;28;20430;-73
2023/09/14 04:30:54;;;;;;;10.77;9.93;;;20.20;55.20;;;;;;5022726;28;20021;-73
2023/09/14 04:33:20;;;;;;;10.15;9.45;;;20.20;59.40;;;;;;5021923;28;20093;-73
2023/09/14 04:35:46;;;;;;;10.75;9.65;;;20.10;50.70;;;;;;5022286;28;20033;-73
2023/09/14 04:38:12;;;;;;;11.10;10.10;;;20.10;49.90;;;;;;5019923;28;20018;-73
2023/09/14 04:40:40;;;;;;;10.43;9.35;;;20.00;53.90;;;;;;5022427;28;20413;-73
2023/09/14 04:43:06;;;;;;;10.20;9.30;;;20.00;52.50;;;;;;5003318;28;20026;-73
2023/09/14 04:45:32;;;;;;;10.90;9.90;;;19.90;51.70;;;;;;5021013;28;20026;-73
2023/09/14 04:47:59;;;;;;;11.38;9.82;;;19.80;66.20;;;;;;5004898;28;20053;-72
2023/09/14 04:50:25;;;;;;;10.68;9.65;;;19.80;74.00;;;;;;5019725;28;20052;-73
2023/09/14 04:52:51;;;;;;;16.83;9.70;;;19.80;78.70;;;;;;5021694;28;20054;-73
2023/09/14 04:55:17;;;;;;;11.93;9.73;;;19.90;80.20;;;;;;5021154;28;20026;-73
2023/09/14 04:57:42;;;;;;;10.50;9.55;;;19.90;69.80;;;;;;5005663;28;20029;-73
2023/09/14 05:00:12;;;;;;;10.40;9.60;;;19.90;66.90;;;;;;5019638;28;20018;-73
2023/09/14 05:02:38;;;;;;;10.27;9.38;;;19.90;66.10;;;;;;5022131;28;20040;-73
2023/09/14 05:05:06;;;;;;;10.35;9.55;;;19.90;70.80;;;;;;5021055;28;20025;-73
2023/09/14 05:07:32;;;;;;;9.80;9.10;;;19.90;70.40;;;;;;5019986;28;20022;-73
2023/09/14 05:09:57;;;;;;;10.10;9.18;;;19.90;73.60;;;;;;5022442;28;20535;-73
2023/09/14 05:12:23;;;;;;;10.93;10.00;;;19.80;71.90;;;;;;5019896;28;20030;-72
2023/09/14 05:14:49;;;;;;;12.90;8.93;;;19.90;74.70;;;;;;5004169;28;20048;-73
2023/09/14 05:17:15;;;;;;;10.63;9.35;;;19.90;69.30;;;;;;5023396;28;20029;-73
2023/09/14 05:19:44;;;;;;;9.30;8.57;;;19.80;65.40;;;;;;5022302;28;20147;-73
2023/09/14 05:22:10;;;;;;;11.98;9.07;;;19.90;65.10;;;;;;5019586;28;20026;-73
2023/09/14 05:24:38;;;;;;;9.75;8.95;;;19.90;66.40;;;;;;5021381;28;20077;-73
2023/09/14 05:27:04;;;;;;;11.63;9.13;;;19.90;67.20;;;;;;5022194;28;20451;-73
2023/09/14 05:29:29;;;;;;;10.68;9.63;;;19.90;72.40;;;;;;5022521;28;20029;-73
2023/09/14 05:31:56;;;;;;;10.07;9.05;;;19.90;71.40;;;;;;5019230;28;20432;-73
2023/09/14 05:34:22;;;;;;;9.52;8.52;;;19.90;71.60;;;;;;5021890;28;20100;-73
2023/09/14 05:36:49;;;;;;;9.80;8.93;;;19.90;68.50;;;;;;5020788;28;20148;-73
2023/09/14 05:39:14;;;;;;;9.07;8.38;;;19.90;68.60;;;;;;5019846;28;20561;-73
2023/09/14 05:41:40;;;;;;;9.00;8.18;;;20.00;63.80;;;;;;5025349;28;20121;-73
2023/09/14 05:44:10;;;;;;;8.77;7.97;;;20.00;65.20;;;;;;5023147;28;20540;-73
2023/09/14 05:46:38;;;;;;;9.95;9.05;;;20.00;60.80;;;;;;5024599;28;20029;-73
2023/09/14 05:49:05;;;;;;;9.40;8.55;;;20.00;62.10;;;;;;5025410;28;20028;-73
2023/09/14 05:51:30;;;;;;;9.48;8.48;;;20.00;63.70;;;;;;5022419;28;20033;-74
2023/09/14 05:53:56;;;;;;;9.20;8.40;;;20.00;58.90;;;;;;5025048;28;20186;-73
2023/09/14 05:56:22;;;;;;;8.43;7.82;;;20.10;55.40;;;;;;5025580;28;20052;-73
2023/09/14 05:58:48;;;;;;;8.88;8.07;;;20.10;53.30;;;;;;5005163;28;20401;-72
2023/09/14 06:01:16;;;;;;;9.60;8.73;;;20.20;54.90;;;;;;5022794;28;20026;-72
2023/09/14 06:03:42;;;;;;;9.57;8.77;;;20.20;54.20;;;;;;5022723;28;20022;-73
2023/09/14 06:06:08;;;;;;;11.68;8.68;;;20.20;52.60;;;;;;5024622;28;20466;-72
2023/09/14 06:08:35;;;;;;;9.38;8.35;;;20.30;54.60;;;;;;5024536;28;20017;-72
2023/09/14 06:11:00;;;;;;;9.85;8.40;;;20.30;54.80;;;;;;5022518;28;20033;-73
2023/09/14 06:13:26;;;;;;;8.27;7.68;;;20.40;51.40;;;;;;5025715;28;20033;-72
2023/09/14 06:15:52;;;;;;;10.30;8.07;;;20.50;47.60;;;;;;5005481;28;20543;-73
2023/09/14 06:18:18;;;;;;;9.27;8.40;;;20.50;45.50;;;;;;5023888;28;20420;-72
2023/09/14 06:20:44;;;;;;;9.13;8.32;;;20.60;41.60;;;;;;5024325;28;20482;-73
2023/09/14 06:23:10;;;;;;;8.95;8.10;;;20.60;43.40;;;;;;5029065;28;20053;-73
2023/09/14 06:25:36;;;;;;;11.98;8.73;;;20.70;41.40;;;;;;5021986;28;20057;-74
2023/09/14 06:28:01;;;;;;;11.45;9.10;;;20.70;43.50;;;;;;5027172;28;20032;-73
2023/09/14 06:30:27;;;;;;;9.23;8.30;;;20.70;49.50;;;;;;5014866;28;20030;-73
2023/09/14 06:32:53;;;;;;;8.95;8.05;;;20.80;40.90;;;;;;5022806;28;20109;-73
2023/09/14 06:35:18;;;;;;;9.77;8.68;;;20.90;43.70;;;;;;5015987;28;20119;-73
2023/09/14 06:37:44;;;;;;;9.55;8.07;;;20.90;44.90;;;;;;5025293;28;20097;-73
2023/09/14 06:40:10;;;;;;;9.00;8.30;;;21.00;32.70;;;;;;5032916;28;20021;-73
2023/09/14 06:42:36;;;;;;;13.38;11.18;;;21.00;31.80;;;;;;5029264;28;20022;-72
2023/09/14 06:45:03;;;;;;;14.40;12.73;;;21.10;58.30;;;;;;5022662;28;20117;-73
2023/09/14 06:47:29;;;;;;;14.38;12.98;;;21.20;71.40;;;;;;5015173;28;20034;-73
2023/09/14 06:49:54;;;;;;;13.63;12.25;;;21.20;68.90;;;;;;5024230;28;20025;-73
2023/09/14 06:52:20;;;;;;;13.30;12.10;;;21.20;48.50;;;;;;5024188;28;20041;-73
2023/09/14 06:54:46;;;;;;;15.00;11.90;;;21.30;33.10;;;;;;5024661;28;20022;-73
2023/09/14 06:57:13;;;;;;;13.32;11.98;;;21.30;37.20;;;;;;5011112;28;20065;-73
2023/09/14 06:59:39;;;;;;;13.02;11.82;;;21.40;33.60;;;;;;5027975;28;20022;-73
2023/09/14 07:02:05;;;;;;;14.55;13.23;;;21.40;49.20;;;;;;5024002;28;20086;-73
2023/09/14 07:04:33;;;;;;;15.82;14.23;;;21.50;55.80;;;;;;5023064;28;20025;-73
2023/09/14 07:06:59;;;;;;;14.48;13.02;;;21.50;58.30;;;;;;5005295;28;20034;-73
2023/09/14 07:09:24;;;;;;;20.17;15.40;;;21.50;81.10;;;;;;5024546;28;20484;-73
2023/09/14 07:11:50;;;;;;;17.50;15.80;;;21.50;67.90;;;;;;5021773;28;20026;-73
2023/09/14 07:14:16;;;;;;;18.48;16.52;;;21.50;66.40;;;;;;5025205;28;20101;-73
2023/09/14 07:16:41;;;;;;;19.00;16.95;;;21.60;93.60;;;;;;5022641;28;20033;-73
2023/09/14 07:19:07;;;;;;;19.95;17.85;;;21.60;92.80;;;;;;5024037;28;20049;-73
2023/09/14 07:21:36;;;;;;;22.13;19.40;;;21.60;98.40;;;;;;5005579;28;20029;-73
2023/09/14 07:24:05;;;;;;;20.83;18.65;;;21.60;99.90;;;;;;5023328;28;20106;-73
2023/09/14 07:26:31;;;;;;;20.92;18.73;;;21.60;99.90;;;;;;5025182;28;20041;-73
2023/09/14 07:28:57;;;;;;;22.85;20.55;;;21.70;99.20;;;;;;5021443;28;20065;-73
2023/09/14 07:31:23;;;;;;;23.33;19.25;;;21.70;99.90;;;;;;5024006;28;20506;-73
2023/09/14 07:33:48;;;;;;;24.60;20.15;;;21.70;99.90;;;;;;5021652;28;20025;-72
2023/09/14 07:36:14;;;;;;;22.00;19.25;;;21.70;99.90;;;;;;5022708;28;20481;-73
2023/09/14 07:38:40;;;;;;;23.75;21.20;;;21.70;99.90;;;;;;5023292;28;20104;-73
2023/09/14 07:41:05;;;;;;;24.65;21.15;;;21.80;99.90;;;;;;5020762;28;20018;-73
2023/09/14 07:43:31;;;;;;;26.98;22.40;;;21.80;99.90;;;;;;5020897;28;20485;-73
2023/09/14 07:45:57;;;;;;;25.92;22.63;;;21.80;93.70;;;;;;5023247;28;20025;-73
2023/09/14 07:48:23;;;;;;;27.45;22.85;;;21.90;84.60;;;;;;5022381;28;20437;-73
2023/09/14 07:50:49;;;;;;;25.83;22.67;;;21.90;91.20;;;;;;5021191;28;20026;-73
2023/09/14 07:53:15;;;;;;;27.77;24.75;;;22.00;92.10;;;;;;5023502;28;20493;-73
2023/09/14 07:55:40;;;;;;;35.00;26.95;;;22.00;90.00;;;;;;5020422;28;20113;-73
2023/09/14 07:58:06;;;;;;;30.67;26.02;;;22.00;79.20;;;;;;5025734;28;20096;-73
2023/09/14 08:00:35;;;;;;;31.48;27.75;;;22.00;82.10;;;;;;5022010;28;20029;-73
2023/09/14 08:03:02;;;;;;;32.80;27.33;;;22.10;89.10;;;;;;5019711;28;20040;-73
2023/09/14 08:05:28;;;;;;;33.80;28.92;;;22.10;93.70;;;;;;5020162;28;20033;-73
2023/09/14 08:07:54;;;;;;;33.80;26.02;;;22.10;79.30;;;;;;5022505;28;20092;-73
2023/09/14 08:10:20;;;;;;;34.13;28.33;;;22.20;96.00;;;;;;5021846;28;20489;-73
2023/09/14 08:12:45;;;;;;;38.42;30.00;;;22.20;99.70;;;;;;5020721;28;20482;-73
2023/09/14 08:15:12;;;;;;;34.42;27.98;;;22.30;92.80;;;;;;5022034;28;20037;-73
2023/09/14 08:17:37;;;;;;;36.13;28.48;;;22.40;96.90;;;;;;5026426;28;20100;-74
2023/09/14 08:20:04;;;;;;;33.70;29.00;;;22.40;93.30;;;;;;5022281;28;20151;-75
2023/09/14 08:22:30;;;;;;;35.90;28.88;;;22.40;86.60;;;;;;5004641;28;20037;-74
2023/09/14 08:25:00;;;;;;;33.03;29.42;;;22.50;88.90;;;;;;5020325;28;20559;-74
2023/09/14 08:27:26;;;;;;;31.77;28.40;;;22.50;95.80;;;;;;5024003;28;20109;-74
2023/09/14 08:29:52;;;;;;;35.88;29.20;;;22.60;94.90;;;;;;5025402;28;20022;-75
2023/09/14 08:32:18;;;;;;;33.80;29.73;;;22.70;92.40;;;;;;5004361;28;20034;-75
2023/09/14 08:34:43;;;;;;;34.55;30.27;;;22.70;90.20;;;;;;5020383;28;20077;-75
2023/09/14 08:37:10;;;;;;;35.40;30.58;;;22.80;94.50;;;;;;5023194;28;20033;-75
2023/09/14 08:39:37;;;;;;;35.45;30.58;;;22.90;71.70;;;;;;5020623;28;20072;-75
2023/09/14 08:42:03;;;;;;;35.25;31.48;;;23.00;77.50;;;;;;5021066;28;20029;-75
2023/09/14 08:44:36;;;;;;;37.15;31.58;;;23.00;57.90;;;;;;5022175;28;20104;-75
2023/09/14 08:47:02;;;;;;;36.17;32.22;;;23.00;72.20;;;;;;5020394;28;20072;-74
2023/09/14 08:49:30;;;;;;;35.95;31.38;;;23.10;77.70;;;;;;5021844;28;20033;-75
2023/09/14 08:51:58;;;;;;;39.00;32.00;;;23.20;70.10;;;;;;5021871;28;20025;-74
2023/09/14 08:54:25;;;;;;;38.83;32.47;;;23.40;69.90;;;;;;5019639;28;20110;-75
2023/09/14 08:56:51;;;;;;;36.55;32.53;;;23.40;50.90;;;;;;5024487;28;20497;-75
2023/09/14 08:59:21;;;;;;;36.35;32.42;;;23.40;31.50;;;;;;5021091;28;20048;-75
2023/09/14 09:01:50;;;;;;;36.72;32.42;;;23.60;48.80;;;;;;5019971;28;20029;-75
2023/09/14 09:04:16;;;;;;;33.65;29.55;;;23.60;28.80;;;;;;5019817;28;20096;-75
2023/09/14 09:06:42;;;;;;;36.97;32.85;;;23.60;33.10;;;;;;5004354;28;20484;-75
2023/09/14 09:09:11;;;;;;;34.22;30.67;;;23.70;44.80;;;;;;5021213;28;20489;-75
2023/09/14 09:11:38;;;;;;;34.28;30.77;;;23.80;43.00;;;;;;5022574;28;20088;-75
2023/09/14 09:14:03;;;;;;;37.95;30.95;;;23.80;42.00;;;;;;5020306;28;20036;-75
2023/09/14 09:16:30;;;;;;;37.35;31.15;;;23.90;33.50;;;;;;5025952;28;20017;-75
2023/09/14 09:19:06;;;;;;;39.20;31.95;;;23.90;31.30;;;;;;5025154;28;20071;-75
2023/09/14 09:21:35;;;;;;;37.15;30.13;;;23.90;6.60;;;;;;5026030;28;20032;-75
2023/09/14 09:24:04;;;;;;;38.25;29.77;;;23.90;24.30;;;;;;5027571;28;20026;-75
2023/09/14 09:26:36;;;;;;;41.35;31.98;;;23.90;28.80;;;;;;5026886;28;20040;-75
2023/09/14 09:29:22;;;;;;;37.05;31.90;;;24.00;11.10;;;;;;5023988;28;20036;-75
2023/09/14 09:31:50;;;;;;;36.40;31.40;;;24.00;24.70;;;;;;5012398;28;20501;-75
2023/09/14 09:34:24;;;;;;;36.00;30.48;;;24.00;30.80;;;;;;5015758;28;20052;-75
2023/09/14 09:36:55;;;;;;;34.53;30.92;;;24.20;37.90;;;;;;5023449;28;20087;-75
2023/09/14 09:39:21;;;;;;;41.97;31.30;;;24.20;26.70;;;;;;5022488;28;20033;-75
2023/09/14 09:41:47;;;;;;;35.53;29.27;;;24.30;29.40;;;;;;5025086;28;20022;-75
2023/09/14 09:44:16;;;;;;;35.03;30.38;;;24.30;20.00;;;;;;5009636;28;20428;-75
2023/09/14 09:46:43;;;;;;;32.45;28.95;;;24.40;16.60;;;;;;5019587;28;20033;-75
2023/09/14 09:49:23;;;;;;;33.50;28.85;;;24.40;20.60;;;;;;5027104;28;20022;-75
2023/09/14 09:51:50;;;;;;;31.02;27.00;;;24.50;1.00;;;;;;5019019;28;20017;-75
2023/09/14 09:54:19;;;;;;;29.08;25.98;;;24.60;12.90;;;;;;5023886;28;20029;-75
2023/09/14 09:56:45;;;;;;;28.27;24.70;;;24.60;1.00;;;;;;5026205;28;20936;-75
2023/09/14 09:59:13;;;;;;;26.33;21.92;;;24.60;1.00;;;;;;5027016;28;20040;-75
2023/09/14 10:01:40;;;;;;;23.23;20.75;;;24.60;1.00;;;;;;5025716;28;20481;-75
2023/09/14 10:04:15;;;;;;;23.88;18.55;;;24.70;1.00;;;;;;5024304;28;20033;-75
2023/09/14 10:06:41;;;;;;;21.38;18.05;;;24.60;1.00;;;;;;5005348;28;20537;-75
2023/09/14 10:09:11;;;;;;;22.00;18.10;;;24.60;1.00;;;;;;5010477;28;20393;-75
2023/09/14 10:11:41;;;;;;;22.33;19.98;;;24.50;1.00;;;;;;5024058;28;20226;-75
2023/09/14 10:14:13;;;;;;;22.10;19.75;;;24.50;1.00;;;;;;5003907;28;20489;-75
2023/09/14 10:16:43;;;;;;;23.27;20.23;;;24.40;1.00;;;;;;5031745;28;20024;-75
2023/09/14 10:19:09;;;;;;;19.15;17.05;;;24.50;1.00;;;;;;5029605;28;20033;-75
2023/09/14 10:21:37;;;;;;;17.40;15.60;;;24.60;1.00;;;;;;5030942;28;20055;-75
2023/09/14 10:24:05;;;;;;;14.65;12.40;;;24.70;1.00;;;;;;5026247;28;20103;-75
2023/09/14 10:26:34;;;;;;;13.48;10.88;;;24.80;1.00;;;;;;5010001;28;20042;-75
2023/09/14 10:29:01;;;;;;;13.25;12.13;;;24.90;1.00;;;;;;5019220;28;20104;-75
2023/09/14 10:31:29;;;;;;;15.45;13.82;;;25.00;1.00;;;;;;5012087;28;20029;-75
2023/09/14 10:33:59;;;;;;;13.80;12.57;;;25.10;99.90;;;;;;5019210;28;20045;-75
2023/09/14 10:36:32;;;;;;;24.65;15.98;;;25.30;1.00;;;;;;5023126;28;20026;-75
2023/09/14 10:39:01;;;;;;;24.55;19.08;;;25.40;1.00;;;;;;5005730;28;20116;-75
2023/09/14 10:41:27;;;;;;;20.20;15.85;;;25.30;99.90;;;;;;5027856;28;20025;-75
2023/09/14 10:43:54;;;;;;;17.98;14.35;;;25.30;99.90;;;;;;5024318;28;20084;-76
2023/09/14 10:46:26;;;;;;;15.55;13.93;;;25.40;1.00;;;;;;5017053;28;20049;-75
2023/09/14 10:48:55;;;;;;;17.63;15.30;;;25.50;99.90;;;;;;5022826;28;20026;-75
2023/09/14 10:51:22;;;;;;;19.23;15.40;;;25.50;99.90;;;;;;5026851;28;20424;-75
2023/09/14 10:53:49;;;;;;;20.25;14.50;;;25.60;99.90;;;;;;5024825;28;20045;-75
2023/09/14 10:56:22;;;;;;;15.02;13.43;;;25.80;99.90;;;;;;5023434;28;20053;-75
2023/09/14 10:58:52;;;;;;;15.15;13.50;;;25.80;99.90;;;;;;5023110;28;20030;-75
2023/09/14 11:01:28;;;;;;;13.73;12.32;;;25.90;99.90;;;;;;5024881;28;20108;-75
2023/09/14 11:04:13;;;;;;;17.25;15.45;;;26.00;99.90;;;;;;5014690;28;20497;-75
2023/09/14 11:06:54;;;;;;;15.30;13.65;;;26.00;99.90;;;;;;5023162;28;20018;-75
2023/09/14 11:09:23;;;;;;;14.93;13.32;;;26.10;99.90;;;;;;5022099;28;20044;-75
2023/09/14 11:11:52;;;;;;;16.40;14.88;;;26.10;99.90;;;;;;5023121;28;20029;-75
2023/09/14 11:14:20;;;;;;;15.05;13.52;;;26.20;99.90;;;;;;5024477;28;20029;-75
2023/09/14 11:16:49;;;;;;;15.93;14.30;;;26.20;99.90;;;;;;5025676;28;20018;-75
2023/09/14 11:19:30;;;;;;;17.75;15.77;;;26.20;99.90;;;;;;5022757;28;20022;-75
2023/09/14 11:22:12;;;;;;;16.65;14.95;;;26.20;99.90;;;;;;5020470;28;20481;-75
2023/09/14 11:24:38;;;;;;;15.82;14.30;;;26.20;99.90;;;;;;5021108;28;20016;-75
2023/09/14 11:27:04;;;;;;;17.33;15.73;;;26.20;99.90;;;;;;5026924;28;20033;-75
2023/09/14 11:29:33;;;;;;;17.35;15.63;;;26.20;99.90;;;;;;5022422;28;20090;-75
2023/09/14 11:32:08;;;;;;;18.90;16.90;;;26.20;99.90;;;;;;5021630;28;20026;-75
2023/09/14 11:34:38;;;;;;;18.65;16.83;;;26.20;99.90;;;;;;5021822;28;20026;-75
2023/09/14 11:37:08;;;;;;;18.25;16.40;;;26.10;99.90;;;;;;5021848;28;20385;-75
2023/09/14 11:39:34;;;;;;;17.50;15.60;;;26.10;99.90;;;;;;5023357;28;20033;-75
2023/09/14 11:42:01;;;;;;;17.90;15.93;;;26.00;99.90;;;;;;5003676;28;20021;-75
2023/09/14 11:44:31;;;;;;;19.83;15.82;;;25.90;99.90;;;;;;5022960;28;20036;-75
2023/09/14 11:47:01;;;;;;;42.40;24.50;;;25.80;99.90;;;;;;5023635;28;20121;-75
2023/09/14 11:49:31;;;;;;;29.17;23.48;;;25.70;33.40;;;;;;5021257;28;20083;-75
2023/09/14 11:51:57;;;;;;;30.58;22.75;;;25.60;34.40;;;;;;5022057;28;20393;-74
2023/09/14 11:54:35;;;;;;;33.25;25.55;;;25.50;37.20;;;;;;5024081;28;20091;-74
2023/09/14 11:57:04;;;;;;;30.08;23.48;;;25.30;38.20;;;;;;5023688;28;20036;-75
2023/09/14 11:59:31;;;;;;;39.15;25.40;;;25.20;57.60;;;;;;5023030;28;20028;-75
2023/09/14 12:01:58;;;;;;;36.97;26.73;;;25.00;94.00;;;;;;5020592;28;20029;-75
2023/09/14 12:04:29;;;;;;;47.72;31.55;;;25.00;95.50;;;;;;5023398;28;20030;-75
2023/09/14 12:06:55;;;;;;;35.80;25.60;;;24.80;99.90;;;;;;5020294;28;20117;-75
2023/09/14 12:09:40;;;;;;;18.25;15.85;;;24.50;99.90;;;;;;5023578;28;20271;-75
2023/09/14 12:12:10;;;;;;;24.10;15.07;;;24.10;95.20;;;;;;5022740;28;20060;-75
2023/09/14 12:14:40;;;;;;;15.52;13.63;;;24.00;99.10;;;;;;5020457;28;20425;-76
2023/09/14 12:17:26;;;;;;;16.92;14.73;;;24.00;99.30;;;;;;5022336;28;20075;-76
2023/09/14 12:19:55;;;;;;;26.77;17.88;;;23.90;99.90;;;;;;5023495;28;20378;-77
2023/09/14 12:22:23;;;;;;;22.58;18.27;;;23.80;99.90;;;;;;5021361;28;20026;-78
2023/09/14 12:24:50;;;;;;;17.48;14.82;;;23.70;99.90;;;;;;5009431;28;20022;-79
2023/09/14 12:27:20;;;;;;;23.83;19.55;;;23.70;99.90;;;;;;5018311;28;20059;-79
2023/09/14 12:29:47;;;;;;;24.52;20.35;;;23.50;99.90;;;;;;5025406;28;20068;-79
2023/09/14 12:32:14;;;;;;;21.88;19.25;;;23.50;99.90;;;;;;5026447;28;20025;-77
2023/09/14 12:34:41;;;;;;;23.88;21.33;;;23.40;99.90;;;;;;5027209;28;20021;-77